Portada
METAR-TAF:

METAR-TAF

Aeroports :

Aeroport de Melilla

Melilla, Espanya

latitud: 35-17N, longitud: 002-57W, altitud: 47 m

Observació

L'informe es va fer fa 27 minuts, a les 11:30 UTC
Vent 10 kt del Est/Nord-Est, variant entre Nord/Nord-Est i Est/Sud-Est
Temperatura 22°C
Humitat 69%
Pressió 1014 hPa
Visibilitat 10 km o més
Núvols disperses a una alçada de 1400 ft

METAR: GEML 301130Z 07010KT 020V110 9999 SCT014 22/16 Q1014

Hora: 13:57 (11:57 UTC)

Pronòstic

L'informe es va fer fa 3 hores i 57 minuts, a les 08:00 UTC
Pronòstic vàlid del 30 a les 09 UTC al 31 a les 09 UTC
Vent 8 kt del Est
Visibilitat 10 km o més
Núvols disperses a una alçada de 1500 ft

TAF: GEML 300800Z 3009/3109 09008KT 9999 SCT015 TX23/3013Z TN18/3105Z

Observacions i pronòstics meteorològics de més de 4000 aeroports (METAR i TAF).

Les estacions disponibles són els punts grocs i vermells al mapa.

Posi el ratolí al punt desitjat per veure el nom de l'estació.

Feu clic per veure les observacions i els pronòstics meteorològics.

Per canviar el mapa: feu clic els botons verds amb una creu de color negre per apropar; al botó verd amb un guió per allunyar la imatge; o en les fletxes verdes per a mapes adjacents.


METAR-TAF: